Tiempo atmosférico en la estación meteorológica de Arico, Santa Cruz de Tenerife (418 m.)



Fecha
DESCASC
Temp. máxima en grados centígrados (hora)
DESCASC
Temp. mínima en grados centígrados (hora)
DESCASC
Temp. media en grados centígrados
DESCASC
Racha de viento máxima en m/sg (hora)
DESCASC
Velocidad máxima media en intervalos de 10 minutos(hora)
DESCASC
Precipitaciones diarias en mm
DESCASC
Precipitaciones de 00:00 a 06:00 en mm
DESCASC
Precipitaciones de 06:00 a 12:00 en mm
DESCASC
Precipitaciones de 12:00 a 18:00 en mm
DESCASC
Precipitaciones de 18:00 a 24:00 en mm
DESCASC
23-06-2019 25.8 (15:00) 16.1 (06:00) 20.9 8.33 (15:00) 4.72 (13:30) 0 0 0 0 0
22-06-2019 24.1 (14:30) 15.6 (07:00) 19.9 7.78 (20:50) 4.72 (05:00) 0 0 0 0 0
21-06-2019 24.4 (12:20) 16 (03:20) 20.2 10.56 (12:50) 6.11 (12:30) 0 0 0 0 0
20-06-2019 21.6 (09:50) 16.4 (00:00) 19 6.94 (21:50) 4.44 (21:40) 0 0 0 0 0
19-06-2019 21.5 (10:20) 17.3 (00:00) 19.4 6.67 (22:30) 5.28 (22:30) 0.2 0 0 0.2 0
18-06-2019 25.4 (12:10) 16.4 (00:00) 20.9 8.33 (16:50) 3.89 (12:50) 0 0 0 0 0
17-06-2019 25.5 (16:30) 14.4 (00:00) 19.9 6.67 (16:10) 3.61 (15:40) 0 0 0 0 0
16-06-2019 23.1 (14:40) 14.1 (00:00) 18.6 7.22 (13:20) 3.89 (13:00) 0 0 0 0 0
15-06-2019 22.2 (15:00) 13.5 (00:00) 17.9 8.89 (14:40) 5 (14:30) 0 0 0 0 0
14-06-2019 19.4 (15:50) 15.2 (00:00) 17.3 8.33 (16:10) 5.56 (15:40) 0.4 0 0 0 0.4
13-06-2019 18.8 (14:00) 16 (00:00) 17.4 6.67 (10:20) 4.17 (10:10) 0 0 0 0 0
12-06-2019 21.1 (17:30) 16 (00:00) 18.6 7.78 (12:50) 4.72 (12:50) 0 0 0 0 0
11-06-2019 22.9 (14:50) 14.8 (00:00) 18.8 9.17 (12:00) 5.83 (11:50) 0 0 0 0 0
10-06-2019 23 (15:00) 14.5 (00:00) 18.8 14.44 (19:00) 8.61 (15:10) 0 0 0 0 0
09-06-2019 21 (13:50) 14 (00:00) 17.5 15 (11:50) 9.17 (14:00) 0 0 0 0 0
08-06-2019 17.9 (18:20) 15.6 (00:00) 16.8 11.94 (19:50) 7.22 (20:30) 2.6 0.6 1.2 0.8 0
07-06-2019 21.6 (12:20) 14 (00:00) 17.8 10.83 (11:30) 7.5 (11:30) 0 0 0 0 0
06-06-2019 21.6 (12:00) 14.9 (00:00) 18.3 12.22 (13:50) 7.78 (13:20) 0 0 0 0 0
05-06-2019 22.1 (11:10) 16 (00:00) 19.1 11.39 (12:10) 7.22 (11:20) 0 0 0 0 0
04-06-2019 27.1 (11:00) 17.4 (00:00) 22.3 8.89 (11:10) 6.67 (12:50) 0 0 0 0 0
03-06-2019 29.6 (13:50) 20.7 (00:00) 25.2 13.33 (01:40) 8.61 (01:40) 0 0 0 0 0
02-06-2019 29.6 (11:30) 16.1 (00:00) 22.9 10 (23:40) 6.11 (23:20) 0 0 0 0 0
01-06-2019 25.2 (12:20) 15.3 (00:00) 20.3 8.06 (11:10) 5.56 (10:50) 0 0 0 0 0
31-05-2019 25.5 (13:10) 14 (00:00) 19.8 6.39 (15:40) 4.17 (15:40) 0 0 0 0 0
30-05-2019 24.1 (12:00) 13.8 (00:00) 19 8.06 (15:30) 4.72 (15:30) 0 0 0 0 0
29-05-2019 24.3 (14:20) 13 (00:00) 18.6 7.22 (10:50) 5.28 (09:00) 0 0 0 0 0
28-05-2019 23.2 (15:10) 15.4 (00:00) 19.3 11.11 (12:50) 5.83 (11:50) 0 0 0 0 0
27-05-2019 26.6 (14:00) 15.2 (00:00) 20.9 10.83 (14:50) 6.94 (15:10) 0 0 0 0 0
26-05-2019 24.1 (15:40) 14.3 (00:00) 19.2 9.17 (13:50) 6.11 (12:20) 0 0 0 0 0

Gráficas

Temp. máximas Temp. mínimas Temp. medias Precipitaciones Rachas de viento máximas Velocidades máximas media en intervalos de 10 minutos

Datos horarios

Fecha y hora oficial Temperatura (ºC) Velocidad del viento (km/h) Dirección del viento Racha (km/h) Dirección de racha Precipitación (mm) Presión (hPa) Tendencia (hPa) Humedad (%)
2019-06-24 22:00:00 -- -- -- -- -- -- -- -- --
2019-06-24 21:00:00 21.8 6 Nordeste 13 Este 0 -- -- 78
2019-06-24 20:00:00 23.1 8 Nordeste 16 Nordeste 0 -- -- 73
2019-06-24 19:00:00 25.1 9 Este 18 Sur 0 -- -- 66
2019-06-24 18:00:00 26.1 12 Sudeste 26 Sudoeste 0 -- -- 62
2019-06-24 17:00:00 25.2 18 Sudoeste 30 Sur 0 -- -- 67
2019-06-24 16:00:00 23.5 11 Sudoeste 19 Sudoeste 0 -- -- 75
2019-06-24 15:00:00 22 12 Sur 19 Sur 0 -- -- 81
2019-06-24 14:00:00 22.2 9 Sur 19 Sur 0 -- -- 79
2019-06-24 13:00:00 22.3 9 Sudeste 18 Sur 0 -- -- 78
2019-06-24 12:00:00 22.6 9 Sudeste 20 Sudeste 0 -- -- 75
2019-06-24 11:00:00 22.4 6 Sur 16 Sudeste 0 -- -- 73
2019-06-24 10:00:00 23.5 9 Sudeste 19 Sudeste 0 -- -- 70
2019-06-24 09:00:00 22 4 Sudeste 9 Sudeste 0 -- -- 69
2019-06-24 08:00:00 19.3 6 Oeste 11 Oeste 0 -- -- 77
2019-06-24 07:00:00 17.6 9 Oeste 11 Oeste 0 -- -- 82
2019-06-24 06:00:00 17.7 9 Oeste 12 Oeste 0 -- -- 83
2019-06-24 05:00:00 17.7 6 Sudoeste 11 Oeste 0 -- -- 82
2019-06-24 04:00:00 18.3 9 Oeste 13 Oeste 0 -- -- 81
2019-06-24 03:00:00 18.3 2 Noroeste 9 Noroeste 0 -- -- 81
2019-06-24 02:00:00 18.4 6 Noroeste 8 Noroeste 0 -- -- 80
2019-06-24 01:00:00 18.7 2 Sudoeste 6 Noroeste 0 -- -- 81
2019-06-24 00:00:00 18.5 2 Noroeste 5 Noroeste 0 -- -- 82
2019-06-23 23:00:00 19 3 Nordeste 6 Este 0 -- -- 86
2019-06-23 22:00:00 19.6 4 Nordeste 8 Nordeste 0 -- -- 81
2019-06-23 21:00:00 20.4 5 Nordeste 12 Este 0 -- -- 80
2019-06-23 20:00:00 22.4 6 Este 14 Este 0 -- -- 72
2019-06-23 19:00:00 23.9 8 Sudeste 21 Sudeste 0 -- -- 62
2019-06-23 18:00:00 24.8 13 Sudeste 24 Sudeste 0 -- -- 55
2019-06-23 17:00:00 25.3 14 Sur 24 Sur 0 -- -- 57
2019-06-23 16:00:00 25.4 15 Sur 26 Sudoeste 0 -- -- 56
2019-06-23 15:00:00 25.8 13 Sur 30 Sur 0 -- -- 54
2019-06-23 14:00:00 25 17 Sur 30 Sur 0 -- -- 57
2019-06-23 13:00:00 24.7 14 Sur 28 Sur 0 -- -- 58
2019-06-23 12:00:00 23.7 13 Sur 27 Sur 0 -- -- 61
2019-06-23 11:00:00 22.9 13 Sur 21 Sur 0 -- -- 65
2019-06-23 10:00:00 22.1 7 Sur 13 Sur 0 -- -- 64
2019-06-23 09:00:00 20.4 5 Sudeste 10 Sur 0 -- -- 70
2019-06-23 08:00:00 17.8 3 Oeste 13 Noroeste 0 -- -- 72
2019-06-23 07:00:00 16.2 7 Noroeste 12 Noroeste 0 -- -- 78
2019-06-23 06:00:00 16.1 8 Noroeste 13 Noroeste 0 -- -- 78
2019-06-23 05:00:00 16.2 8 Noroeste 13 Noroeste 0 -- -- 83
2019-06-23 04:00:00 16.5 7 Noroeste 12 Noroeste 0 -- -- 85
2019-06-23 03:00:00 16.8 6 Noroeste 12 Noroeste 0 -- -- 82
2019-06-23 02:00:00 17.2 7 Noroeste 9 Noroeste 0 -- -- 84
2019-06-23 01:00:00 17.6 5 Noroeste 9 Noroeste 0 -- -- 83
2019-06-23 00:00:00 17.7 7 Noroeste 10 Noroeste 0 -- -- 82
2019-06-22 23:00:00 18 5 Noroeste 9 Norte 0 -- -- 82
2019-06-22 22:00:00 18.1 3 Noroeste 17 Sudoeste 0 -- -- 83
2019-06-22 21:00:00 18.7 14 Sudoeste 28 Sudoeste 0 -- -- 83
2019-06-22 20:00:00 20.3 11 Sudoeste 22 Sudoeste 0 -- -- 76
2019-06-22 19:00:00 21.2 14 Sur 21 Sudoeste 0 -- -- 73
2019-06-22 18:00:00 21.9 12 Sur 21 Sur 0 -- -- 70
2019-06-22 17:00:00 21.8 8 Sudeste 14 Este 0 -- -- 71
2019-06-22 16:00:00 21.2 8 Sudeste 21 Este 0 -- -- 72
2019-06-22 15:00:00 23 11 Sudeste 24 Sudeste 0 -- -- 64
2019-06-22 14:00:00 22.8 10 Este 19 Sudeste 0 -- -- 65
2019-06-22 13:00:00 23 10 Sudeste 19 Sudeste 0 -- -- 63
2019-06-22 12:00:00 23.1 11 Sudeste 20 Sudeste 0 -- -- 63
2019-06-22 11:00:00 21.4 9 Sur 24 Sur 0 -- -- 68
2019-06-22 10:00:00 21.1 8 Sudeste 18 Sur 0 -- -- 69
2019-06-22 09:00:00 19 10 Sur 17 Oeste 0 -- -- 76
2019-06-22 08:00:00 17.1 6 Oeste 11 Oeste 0 -- -- 82
2019-06-22 07:00:00 15.6 9 Noroeste 13 Noroeste 0 -- -- 80
2019-06-22 06:00:00 15.8 10 Noroeste 25 Oeste 0 -- -- 79
2019-06-22 05:00:00 16.6 17 Oeste 24 Sudoeste 0 -- -- 84
2019-06-22 04:00:00 16.4 12 Oeste 21 Sudoeste 0 -- -- 85
2019-06-22 03:00:00 16.6 14 Sudoeste 20 Sudoeste 0 -- -- 84
2019-06-22 02:00:00 16.7 12 Oeste 16 Oeste 0 -- -- 85
2019-06-22 01:00:00 17.1 6 Noroeste 13 Noroeste 0 -- -- 80
2019-06-22 00:00:00 17.5 6 Noroeste 13 Noroeste 0 -- -- 81
2019-06-21 23:00:00 18.3 9 Sudoeste 15 Sudoeste 0 -- -- 81
2019-06-21 22:00:00 18.7 7 Sur 11 Sur 0 -- -- 80
2019-06-21 21:00:00 19.1 9 Sur 14 Sur 0 -- -- 79
2019-06-21 20:00:00 20.5 9 Sudeste 16 Este 0 -- -- 71
2019-06-21 19:00:00 21.6 13 Este 23 Este 0 -- -- 68
2019-06-21 18:00:00 21.8 11 Este 23 Este 0 -- -- 66
2019-06-21 17:00:00 21.3 13 Este 26 Este 0 -- -- 70
2019-06-21 16:00:00 20.9 17 Este 29 Nordeste 0 -- -- 72
2019-06-21 15:00:00 20.3 20 Nordeste 29 Este 0 -- -- 73
2019-06-21 14:00:00 21.2 19 Este 30 Este 0 -- -- 68
2019-06-21 13:00:00 23.2 18 Este 38 Este 0 -- -- 62
2019-06-21 12:00:00 24.3 18 Este 31 Este 0 -- -- 57
2019-06-21 11:00:00 23.5 13 Sudeste 23 Este 0 -- -- 60
2019-06-21 10:00:00 21.8 4 Sudeste 11 Sudoeste 0 -- -- 63
2019-06-21 09:00:00 20.3 6 Sur 12 Sudeste 0 -- -- 69
2019-06-21 08:00:00 17.6 7 Sudoeste 18 Oeste 0 -- -- 74
2019-06-21 07:00:00 16 11 Oeste 19 Oeste 0 -- -- 81
2019-06-21 06:00:00 16.4 13 Oeste 21 Oeste 0 -- -- 84
2019-06-21 05:00:00 16.7 6 Noroeste 19 Oeste 0 -- -- 76
2019-06-21 04:00:00 16.7 13 Oeste 17 Oeste 0 -- -- 85
2019-06-21 03:00:00 16.6 4 Noroeste 21 Sudoeste 0 -- -- 75
2019-06-21 02:00:00 16.5 6 Sudoeste 18 Oeste 0 -- -- 80
2019-06-21 01:00:00 17.3 11 Oeste 18 Sudoeste 0 -- -- 83
2019-06-21 00:00:00 17.7 12 Oeste 15 Oeste 0 -- -- 85
2019-06-20 23:00:00 18.1 9 Oeste 14 Sudoeste 0 -- -- 85
2019-06-20 22:00:00 19.2 10 Sudoeste 25 Sudoeste 0 -- -- 78
2019-06-20 21:00:00 20 12 Sur 18 Sudoeste 0 -- -- 75
2019-06-20 20:00:00 20.8 12 Sudoeste 22 Sudoeste 0 -- -- 73
2019-06-20 19:00:00 21.1 6 Sur 12 Sudeste 0 -- -- 69
2019-06-20 18:00:00 21.1 3 Este 15 Sudeste 0 -- -- 73
2019-06-20 17:00:00 21 8 Sudeste 19 Nordeste 0 -- -- 71
2019-06-20 16:00:00 21 14 Este 21 Este 0 -- -- 72
2019-06-20 15:00:00 20.4 12 Este 19 Este 0 -- -- 78
2019-06-20 14:00:00 20 14 Nordeste 23 Este 0 -- -- 79
2019-06-20 13:00:00 20 13 Este 22 Este 0 -- -- 80
2019-06-20 12:00:00 20.5 14 Este 23 Este 0 -- -- 77
2019-06-20 11:00:00 21 11 Este 18 Este 0 -- -- 70
2019-06-20 10:00:00 21.5 8 Sudeste 12 Sur 0 -- -- 67
2019-06-20 09:00:00 19.2 6 Sur 12 Oeste 0 -- -- 77
2019-06-20 08:00:00 18.1 9 Oeste 15 Noroeste 0 -- -- 73
2019-06-20 07:00:00 16.4 12 Noroeste 15 Oeste 0 -- -- 78
2019-06-20 06:00:00 17.3 2 Oeste 10 Oeste 0 -- -- 78
2019-06-20 05:00:00 17.7 4 Noroeste 8 Noroeste 0 -- -- 84
2019-06-20 04:00:00 17.8 4 Noroeste 6 Noroeste 0 -- -- 85
2019-06-20 03:00:00 18 0 Calma 8 Noroeste 0 -- -- 81
2019-06-20 02:00:00 18 5 Noroeste 10 Oeste 0 -- -- 80
2019-06-20 01:00:00 17.5 8 Oeste 12 Noroeste 0 -- -- 83
2019-06-20 00:00:00 17.6 9 Noroeste 14 Sudoeste 0 -- -- 83
2019-06-19 23:00:00 17.6 12 Oeste 24 Oeste 0 -- -- 86
2019-06-19 22:00:00 18.1 14 Sudoeste 22 Sudoeste 0 -- -- 91
2019-06-19 21:00:00 18.5 10 Sudoeste 18 Sudoeste 0 -- -- 90
2019-06-19 20:00:00 19.2 8 Sur 13 Sur 0 -- -- 87
2019-06-19 19:00:00 19.8 4 Oeste 8 Noroeste 0 -- -- 82
2019-06-19 18:00:00 19.5 3 Sudeste 12 Este 0 -- -- 84
2019-06-19 17:00:00 19.6 3 Sudeste 15 Este 0.2 -- -- 86
2019-06-19 16:00:00 19.8 10 Este 18 Este 0 -- -- 83
2019-06-19 15:00:00 19.8 12 Este 21 Este 0 -- -- 81
2019-06-19 14:00:00 19.6 9 Este -- -- -- -- -- 88
2019-06-19 13:00:00 -- -- -- -- -- -- -- -- --
2019-06-19 12:00:00 20.3 7 Sudeste 18 Este 0 -- -- 82
2019-06-19 11:00:00 21.1 10 Sur 18 Sudeste 0 -- -- 76
2019-06-19 10:00:00 20.5 9 Sur 15 Sudoeste 0 -- -- 77
2019-06-19 09:00:00 18.8 9 Sudoeste 14 Sudoeste 0 -- -- 86
2019-06-19 08:00:00 18.4 7 Sudoeste 12 Sur 0 -- -- 88
2019-06-19 07:00:00 18.4 4 Sur 12 Sudoeste 0 -- -- 87
2019-06-19 06:00:00 18.5 4 Sudoeste 9 Sudoeste 0 -- -- 86
2019-06-19 05:00:00 18.5 9 Sudoeste 12 Sudoeste 0 -- -- 89
2019-06-19 04:00:00 18.8 5 Sur 9 Sur 0 -- -- 90
2019-06-19 03:00:00 19 0 Calma 5 Sudeste -- -- -- 89
2019-06-19 02:00:00 19 4 Sudeste 6 Sudeste 0 -- -- 88
2019-06-19 01:00:00 19.2 2 Sudeste 7 Sudeste 0 -- -- 88
2019-06-19 00:00:00 19.3 5 Sudeste 8 Sudeste 0 -- -- 87
2019-06-18 23:00:00 19.3 3 Sur 6 Sudeste 0 -- -- 88
2019-06-18 22:00:00 19.2 3 Sudeste 8 Sudeste 0 -- -- 88
2019-06-18 21:00:00 19.5 2 Sur 8 Sudeste 0 -- -- 87
2019-06-18 20:00:00 19.7 4 Sudeste 10 Sudeste 0 -- -- 87
2019-06-18 19:00:00 20.6 7 Sudeste 18 Sudeste 0 -- -- 79
2019-06-18 18:00:00 21.5 9 Sur 19 Sudeste 0 -- -- 74
2019-06-18 17:00:00 22.9 13 Sudeste 30 Sudeste 0 -- -- 67
2019-06-18 16:00:00 23.4 12 Sur 21 Sur 0 -- -- 62
2019-06-18 15:00:00 22.8 10 Sudeste 22 Sur 0 -- -- 64
2019-06-18 14:00:00 22.8 11 Sur 23 Sur 0 -- -- 64
2019-06-18 13:00:00 24.6 12 Sudeste 28 Sudeste 0 -- -- 59
2019-06-18 12:00:00 25.1 12 Sudeste 24 Este 0 -- -- 58
2019-06-18 11:00:00 23.6 8 Sudeste 17 Este 0 -- -- 61
2019-06-18 10:00:00 22.6 7 Sudeste 12 Sur 0 -- -- 64
2019-06-18 09:00:00 21 3 Este 6 Sudeste 0 -- -- 65
2019-06-18 08:00:00 17.9 4 Noroeste 8 Noroeste 0 -- -- 75
2019-06-18 07:00:00 16.5 2 Norte 7 Noroeste 0 -- -- 81
2019-06-18 06:00:00 16.8 5 Noroeste 9 Noroeste 0 -- -- 78
2019-06-18 05:00:00 17.1 3 Noroeste 7 Noroeste 0 -- -- 79
2019-06-18 04:00:00 17.2 5 Noroeste 9 Noroeste 0 -- -- 78
2019-06-18 03:00:00 17.4 4 Noroeste 10 Noroeste 0 -- -- 79
2019-06-18 02:00:00 17.6 5 Noroeste 8 Noroeste 0 -- -- 78
2019-06-18 01:00:00 17.6 4 Noroeste 9 Norte 0 -- -- 79
2019-06-18 00:00:00 17.8 5 Noroeste 9 Noroeste 0 -- -- 79
2019-06-17 23:00:00 18 4 Noroeste 8 Noroeste 0 -- -- 80
2019-06-17 22:00:00 18.7 3 Nordeste 8 Nordeste 0 -- -- 80
2019-06-17 21:00:00 19.6 5 Nordeste 12 Este 0 -- -- 75
2019-06-17 20:00:00 21.7 9 Este 16 Este 0 -- -- 67
2019-06-17 19:00:00 23.3 9 Nordeste 18 Este 0 -- -- 61
2019-06-17 18:00:00 23.6 7 Sudeste 19 Este 0 -- -- 63
2019-06-17 17:00:00 25.4 10 Este 24 Sudeste 0 -- -- 53
2019-06-17 16:00:00 25.1 10 Sudeste 24 Sudeste 0 -- -- 53
2019-06-17 15:00:00 24.6 12 Sudeste 23 Sudeste 0 -- -- 59
2019-06-17 14:00:00 23.5 12 Sudeste 23 Sudeste 0 -- -- 63
2019-06-17 13:00:00 23.6 10 Sudeste 23 Sudeste 0 -- -- 64
2019-06-17 12:00:00 23.3 10 Sudeste 20 Sudeste 0 -- -- 64
2019-06-17 11:00:00 22.6 10 Sudeste 18 Sudeste 0 -- -- 65
2019-06-17 10:00:00 20.9 6 Sudeste 12 Sudeste 0 -- -- 66
2019-06-17 09:00:00 18.4 3 Sudeste 10 Sudeste 0 -- -- 77
2019-06-17 08:00:00 15.9 5 Oeste 12 Oeste 0 -- -- 87
2019-06-17 07:00:00 14.4 9 Oeste 15 Oeste 0 -- -- 89
2019-06-17 06:00:00 14.6 10 Oeste 13 Oeste 0 -- -- 87
2019-06-17 05:00:00 14.7 8 Oeste 13 Sudoeste 0 -- -- 86
2019-06-17 04:00:00 14.8 9 Oeste 11 Oeste 0 -- -- 83
2019-06-17 03:00:00 15.3 7 Noroeste 10 Noroeste 0 -- -- 81
2019-06-17 02:00:00 16.6 4 Noroeste 8 Noroeste 0 -- -- 78
2019-06-17 01:00:00 16.6 3 Sur 9 Este 0 -- -- 86
2019-06-17 00:00:00 16.8 6 Nordeste 12 Nordeste 0 -- -- 83
2019-06-16 23:00:00 17.2 7 Este 12 Nordeste 0 -- -- 82
2019-06-16 22:00:00 17.3 7 Este 12 Este 0 -- -- 80
2019-06-16 21:00:00 17.5 6 Este 13 Este 0 -- -- 78
2019-06-16 20:00:00 18.7 8 Este 18 Nordeste 0 -- -- 72
2019-06-16 19:00:00 20.8 8 Este 17 Sudeste 0 -- -- 63
2019-06-16 18:00:00 21.5 10 Sudeste 20 Sur 0 -- -- 61
2019-06-16 17:00:00 22.5 10 Sudeste 21 Sudeste 0 -- -- 58
2019-06-16 16:00:00 22.5 12 Sudeste 24 Este 0 -- -- 58
2019-06-16 15:00:00 22.8 11 Este 24 Este 0 -- -- 56
2019-06-16 14:00:00 22.5 12 Este 26 Este 0 -- -- 57
2019-06-16 13:00:00 22.1 14 Nordeste 23 Nordeste 0 -- -- 58
2019-06-16 12:00:00 21.4 10 Nordeste 22 Este 0 -- -- 58
2019-06-16 11:00:00 20.6 10 Este 19 Este 0 -- -- 59
2019-06-16 10:00:00 20 8 Nordeste 17 Este 0 -- -- 59
2019-06-16 09:00:00 18.6 7 Nordeste 12 Nordeste 0 -- -- 64
2019-06-16 08:00:00 16.7 2 Sudoeste 6 Noroeste 0 -- -- 74
2019-06-16 07:00:00 15.2 3 Oeste 9 Noroeste 0 -- -- 77
2019-06-16 06:00:00 14.7 8 Noroeste 13 Noroeste 0 -- -- 73
2019-06-16 05:00:00 14.3 8 Noroeste 14 Noroeste 0 -- -- 75
2019-06-16 04:00:00 14.2 9 Noroeste 12 Noroeste 0 -- -- 75
2019-06-16 03:00:00 15 4 Noroeste 11 Noroeste 0 -- -- 72
2019-06-16 02:00:00 15.7 4 Noroeste 13 Nordeste 0 -- -- 71
2019-06-16 01:00:00 16.2 7 Nordeste 16 Nordeste 0 -- -- 81
2019-06-16 00:00:00 16.2 8 Nordeste 14 Nordeste 0 -- -- 82
2019-06-15 23:00:00 16.3 9 Nordeste 16 Nordeste 0 -- -- 81
2019-06-15 22:00:00 16.4 9 Nordeste 19 Nordeste 0 -- -- 79
2019-06-15 21:00:00 16.7 12 Nordeste 18 Este 0 -- -- 77
2019-06-15 20:00:00 17.2 12 Nordeste 22 Este 0 -- -- 73
2019-06-15 19:00:00 17.3 11 Este 21 Este 0 -- -- 74
2019-06-15 18:00:00 17.7 10 Este 19 Nordeste 0 -- -- 72
2019-06-15 17:00:00 18.4 11 Este 27 Este 0 -- -- 70
2019-06-15 16:00:00 21 17 Este 31 Este 0 -- -- 60
2019-06-15 15:00:00 22.2 17 Este 32 Este 0 -- -- 50
2019-06-15 14:00:00 21.1 16 Nordeste 28 Nordeste 0 -- -- 54
2019-06-15 13:00:00 21.6 17 Este 30 Nordeste 0 -- -- 51
2019-06-15 12:00:00 19.7 12 Este 24 Este 0 -- -- 61
2019-06-15 11:00:00 17.8 10 Nordeste 25 Nordeste 0 -- -- 68
2019-06-15 10:00:00 16.8 16 Nordeste 27 Nordeste 0 -- -- 72
2019-06-15 09:00:00 15.8 13 Nordeste 23 Norte 0 -- -- 79
2019-06-15 08:00:00 14.7 9 Norte 15 Norte 0 -- -- 77
2019-06-15 07:00:00 13.7 9 Norte 17 Norte 0 -- -- 74
2019-06-15 06:00:00 13.7 10 Norte 16 Norte 0 -- -- 74
2019-06-15 05:00:00 13.5 10 Norte 15 Norte 0 -- -- 77
2019-06-15 04:00:00 14.4 8 Norte 15 Nordeste 0 -- -- 78
2019-06-15 03:00:00 15 9 Nordeste 19 Nordeste 0 -- -- 81
2019-06-15 02:00:00 15.4 8 Nordeste 20 Nordeste 0 -- -- 85
2019-06-15 01:00:00 15.4 9 Nordeste 17 Nordeste 0 -- -- 88
2019-06-15 00:00:00 15.4 9 Nordeste 14 Nordeste 0 -- -- 87
2019-06-14 23:00:00 15.3 9 Nordeste 18 Nordeste 0 -- -- 89
2019-06-14 22:00:00 15.4 8 Nordeste 14 Nordeste 0.4 -- -- 90
2019-06-14 21:00:00 16.1 8 Nordeste 18 Nordeste 0 -- -- 87
2019-06-14 20:00:00 16.9 13 Nordeste 23 Este 0 -- -- 76
2019-06-14 19:00:00 17.6 13 Nordeste 23 Nordeste 0 -- -- 69
2019-06-14 18:00:00 17.9 17 Nordeste 28 Este 0 -- -- 67
2019-06-14 17:00:00 18.4 18 Nordeste 30 Este 0 -- -- 67
2019-06-14 16:00:00 19.2 18 Nordeste 29 Este 0 -- -- 66
2019-06-14 15:00:00 19.1 14 Nordeste 27 Este 0 -- -- 57
2019-06-14 14:00:00 18.1 15 Nordeste 24 Nordeste 0 -- -- 65
2019-06-14 13:00:00 18.4 12 Nordeste 22 Nordeste 0 -- -- 63
2019-06-14 12:00:00 17.6 12 Nordeste 20 Nordeste 0 -- -- 71
2019-06-14 11:00:00 17.4 12 Nordeste 21 Nordeste 0 -- -- 75
2019-06-14 10:00:00 17.1 12 Este 18 Nordeste 0 -- -- 75
2019-06-14 09:00:00 16.6 12 Nordeste 22 Nordeste 0 -- -- 72
2019-06-14 08:00:00 15.8 8 Nordeste 19 Norte 0 -- -- 76
2019-06-14 07:00:00 15.5 10 Norte 24 Nordeste 0 -- -- 81
2019-06-14 06:00:00 15.6 9 Nordeste 16 Nordeste 0 -- -- 82
2019-06-14 05:00:00 15.7 10 Nordeste 20 Nordeste 0 -- -- 80
2019-06-14 04:00:00 15.6 12 Nordeste 21 Nordeste 0 -- -- 81
2019-06-14 03:00:00 15.8 12 Nordeste 19 Nordeste 0 -- -- 84
2019-06-14 02:00:00 16.1 12 Nordeste 21 Nordeste 0 -- -- 80
2019-06-14 01:00:00 16.1 4 Norte 25 Nordeste 0 -- -- 72
2019-06-14 00:00:00 16.2 14 Nordeste 23 Nordeste 0 -- -- 70
2019-06-13 23:00:00 16.3 9 Nordeste 22 Nordeste 0 -- -- 81
2019-06-13 22:00:00 16.3 12 Nordeste 22 Este 0 -- -- 81
2019-06-13 21:00:00 16.4 5 Noroeste 10 Noroeste 0 -- -- 84
2019-06-13 20:00:00 17 3 Sudoeste 12 Este 0 -- -- 83
2019-06-13 19:00:00 17 6 Este 13 Nordeste 0 -- -- 84
2019-06-13 18:00:00 18 6 Este 19 Nordeste 0 -- -- 75
2019-06-13 17:00:00 18.5 12 Nordeste 22 Este 0 -- -- 69
2019-06-13 16:00:00 18.2 13 Este 22 Este 0 -- -- 72
2019-06-13 15:00:00 18.8 10 Este 22 Este 0 -- -- 69
2019-06-13 14:00:00 18.8 10 Este 21 Este 0 -- -- 68
2019-06-13 13:00:00 18.1 11 Este 18 Este 0 -- -- 68
2019-06-13 12:00:00 17.9 14 Nordeste 23 Nordeste 0 -- -- 70
2019-06-13 11:00:00 18.6 9 Este 24 Sudoeste 0 -- -- 67
2019-06-13 10:00:00 18.1 15 Sur 22 Sur 0 -- -- 69
2019-06-13 09:00:00 17.1 7 Sudoeste 14 Sudoeste 0 -- -- 75
2019-06-13 08:00:00 16.3 6 Oeste 9 Oeste 0 -- -- 79
2019-06-13 07:00:00 16.1 3 Oeste 14 Sudoeste 0 -- -- 79
2019-06-13 06:00:00 16.4 9 Sur 19 Sudoeste 0 -- -- 78
2019-06-13 05:00:00 16.4 5 Oeste 8 Oeste 0 -- -- 81
2019-06-13 04:00:00 16.5 2 Sudoeste 10 Oeste 0 -- -- 81
2019-06-13 03:00:00 16.6 9 Sudoeste 15 Sudoeste 0 -- -- 83
2019-06-13 02:00:00 16.8 7 Oeste 9 Oeste 0 -- -- 83
2019-06-13 01:00:00 16.8 2 Oeste 8 Sudeste 0 -- -- 80
2019-06-13 00:00:00 17.1 4 Sudeste 14 Sur 0 -- -- 81
2019-06-12 23:00:00 17.4 4 Sur 9 Sudoeste 0 -- -- 81
2019-06-12 22:00:00 17.6 5 Sur 15 Sur 0 -- -- 82
2019-06-12 21:00:00 18.1 10 Sur 19 Sudoeste 0 -- -- 77
2019-06-12 20:00:00 18.1 14 Sudoeste 22 Sudoeste 0 -- -- 78
2019-06-12 19:00:00 18.4 8 Sur 23 Sudeste 0 -- -- 80
2019-06-12 18:00:00 19.7 12 Sudeste 26 Sur 0 -- -- 74
2019-06-12 17:00:00 20.5 13 Sur 19 Sudeste 0 -- -- 66
2019-06-12 16:00:00 19.1 11 Este 21 Nordeste 0 -- -- 71
2019-06-12 15:00:00 19.2 13 Nordeste 22 Este 0 -- -- 73
2019-06-12 14:00:00 18.7 13 Nordeste 24 Nordeste 0 -- -- 75
2019-06-12 13:00:00 18 15 Nordeste 28 Nordeste 0 -- -- 82
2019-06-12 12:00:00 17.4 12 Nordeste 23 Este 0 -- -- 90
2019-06-12 11:00:00 17.9 15 Este 22 Nordeste 0 -- -- 87
2019-06-12 10:00:00 18.7 14 Este 22 Este 0 -- -- 82
2019-06-12 09:00:00 18.7 11 Sudoeste 23 Sudoeste 0 -- -- 79
2019-06-12 08:00:00 17.2 13 Sudoeste 18 Sudoeste 0 -- -- 86
2019-06-12 07:00:00 16.4 4 Sur 10 Sur 0 -- -- 91
2019-06-12 06:00:00 16.2 3 Sudoeste 5 Sudoeste 0 -- -- 87
2019-06-12 05:00:00 16.4 4 Oeste 6 Norte 0 -- -- 88
2019-06-12 04:00:00 16.1 4 Norte 11 Oeste 0 -- -- 85
2019-06-12 03:00:00 16.4 9 Oeste 14 Sudoeste 0 -- -- 88
2019-06-12 02:00:00 17.1 6 Sudoeste 18 Sudoeste 0 -- -- 86
2019-06-12 01:00:00 17.3 8 Sudoeste 16 Sur 0 -- -- 86
2019-06-12 00:00:00 17.6 8 Sudoeste 19 Sudoeste 0 -- -- 84
2019-06-11 23:00:00 17.9 9 Sur 18 Sudoeste 0 -- -- 82
2019-06-11 22:00:00 18.2 9 Sudoeste 12 Sudoeste 0 -- -- 79
2019-06-11 21:00:00 18.6 5 Sur 13 Sudeste 0 -- -- 78
2019-06-11 20:00:00 19.7 7 Este 19 Este 0 -- -- 74
2019-06-11 19:00:00 20.6 13 Este 23 Este 0 -- -- 72
2019-06-11 18:00:00 20.4 12 Este 26 Este 0 -- -- 75
2019-06-11 17:00:00 20.8 13 Este 28 Este 0 -- -- 73
2019-06-11 16:00:00 21.3 18 Este 29 Este 0 -- -- 72
2019-06-11 15:00:00 22.1 21 Este 32 Este 0 -- -- 68
2019-06-11 14:00:00 22 18 Este 31 Este 0 -- -- 67
2019-06-11 13:00:00 20.8 17 Este 32 Este 0 -- -- 71
2019-06-11 12:00:00 20.9 20 Nordeste 33 Nordeste 0 -- -- 70
2019-06-11 11:00:00 21.2 18 Este 30 Este 0 -- -- 66
2019-06-11 10:00:00 18.8 9 Sur 17 Sur 0 -- -- 69
2019-06-11 09:00:00 17.5 6 Sudeste 17 Sudoeste 0 -- -- 76
2019-06-11 08:00:00 16.2 5 Sudoeste 21 Oeste 0 -- -- 81
2019-06-11 07:00:00 15.2 13 Sudoeste 25 Oeste 0 -- -- 83
2019-06-11 06:00:00 14.8 8 Sudoeste 28 Oeste 0 -- -- 85
2019-06-11 05:00:00 15.6 21 Oeste 28 Sudoeste 0 -- -- 82
2019-06-11 04:00:00 15.3 6 Oeste 25 Sudoeste 0 -- -- 81
2019-06-11 03:00:00 16 20 Sudoeste 29 Oeste 0 -- -- 81
2019-06-11 02:00:00 16 19 Sudoeste 27 Sudoeste 0 -- -- 81
2019-06-11 01:00:00 15.8 15 Oeste 23 Sudoeste 0 -- -- 82
2019-06-11 00:00:00 16 8 Sudoeste 18 Sudoeste 0 -- -- 80
2019-06-10 23:00:00 16.3 9 Sudoeste 15 Oeste 0 -- -- 79
2019-06-10 22:00:00 16.6 6 Sudoeste 15 Nordeste 0 -- -- 78
2019-06-10 21:00:00 17.2 15 Nordeste 40 Nordeste 0 -- -- 75
2019-06-10 20:00:00 18.4 21 Nordeste 43 Nordeste 0 -- -- 73
2019-06-10 19:00:00 20.3 27 Nordeste 52 Nordeste 0 -- -- 65
2019-06-10 18:00:00 20.8 24 Nordeste 47 Este 0 -- -- 61
2019-06-10 17:00:00 21.3 27 Nordeste 48 Nordeste 0 -- -- 63
2019-06-10 16:00:00 22.2 22 Nordeste 48 Nordeste 0 -- -- 63
2019-06-10 15:00:00 23 24 Este 49 Nordeste 0 -- -- 53
2019-06-10 14:00:00 22.2 26 Nordeste 40 Este 0 -- -- 58
2019-06-10 13:00:00 21.9 27 Nordeste 46 Este -- -- -- 60
2019-06-10 12:00:00 21.6 24 Nordeste 44 Nordeste 0 -- -- 59
2019-06-10 11:00:00 20.4 27 Nordeste 51 Nordeste 0 -- -- 62
2019-06-10 10:00:00 19 28 Nordeste 44 Nordeste 0 -- -- 65
2019-06-10 09:00:00 18.4 21 Nordeste 37 Nordeste 0 -- -- 68
2019-06-10 08:00:00 16 12 Nordeste 31 Nordeste 0 -- -- 75
2019-06-10 07:00:00 14.6 15 Nordeste 35 Nordeste 0 -- -- 80
2019-06-10 06:00:00 14.5 13 Nordeste 27 Nordeste 0 -- -- 82
2019-06-10 05:00:00 14.7 14 Nordeste 28 Nordeste 0 -- -- 81
2019-06-10 04:00:00 14.9 20 Nordeste 30 Nordeste 0 -- -- 83
2019-06-10 03:00:00 14.6 10 Nordeste 27 Nordeste 0 -- -- 82
2019-06-10 02:00:00 15.3 19 Nordeste 39 Nordeste 0 -- -- 82
2019-06-10 01:00:00 15.4 22 Nordeste 39 Nordeste 0 -- -- 80
2019-06-10 00:00:00 15.6 20 Nordeste 35 Nordeste 0 -- -- 78
2019-06-09 23:00:00 16 24 Nordeste 40 Nordeste 0 -- -- 78
2019-06-09 22:00:00 16.2 27 Nordeste 39 Nordeste 0 -- -- 76
2019-06-09 21:00:00 16.7 26 Nordeste 40 Nordeste 0 -- -- 75
2019-06-09 20:00:00 18.1 23 Nordeste 44 Nordeste 0 -- -- 68
2019-06-09 19:00:00 19.6 23 Nordeste 43 Este 0 -- -- 63
2019-06-09 18:00:00 19.6 28 Nordeste 47 Nordeste 0 -- -- 63
2019-06-09 17:00:00 20.6 26 Nordeste 46 Este 0 -- -- 61
2019-06-09 16:00:00 20.4 31 Nordeste 50 Nordeste 0 -- -- 61
2019-06-09 15:00:00 20.9 29 Nordeste 49 Nordeste 0 -- -- 59
2019-06-09 14:00:00 20.6 33 Nordeste 50 Nordeste 0 -- -- 57
2019-06-09 13:00:00 20.4 30 Nordeste 48 Este 0 -- -- 61
2019-06-09 12:00:00 20 28 Nordeste 54 Nordeste 0 -- -- 60
2019-06-09 11:00:00 19.3 28 Nordeste 45 Este 0 -- -- 65
2019-06-09 10:00:00 18.8 23 Nordeste 42 Nordeste 0 -- -- 61
2019-06-09 09:00:00 17.4 25 Nordeste 41 Nordeste 0 -- -- 63
2019-06-09 08:00:00 14.9 15 Nordeste 27 Nordeste 0 -- -- 75
2019-06-09 07:00:00 15.3 17 Nordeste 29 Nordeste 0 -- -- 77
2019-06-09 06:00:00 15.1 17 Nordeste 30 Nordeste 0 -- -- 80
2019-06-09 05:00:00 14.2 13 Norte 28 Norte 0 -- -- 77
2019-06-09 04:00:00 14.4 5 Norte 20 Nordeste 0 -- -- 80
2019-06-09 03:00:00 15.3 8 Nordeste 29 Nordeste 0 -- -- 77
2019-06-09 02:00:00 15.8 9 Nordeste 28 Norte 0 -- -- 78
2019-06-09 01:00:00 15.8 16 Nordeste 32 Nordeste 0 -- -- 77
2019-06-09 00:00:00 16.1 17 Nordeste 30 Nordeste 0 -- -- 78
2019-06-08 23:00:00 16.3 9 Nordeste 30 Nordeste 0 -- -- 80
2019-06-08 22:00:00 16.2 15 Nordeste 32 Este 0 -- -- 84
2019-06-08 21:00:00 16.2 19 Nordeste 39 Nordeste 0 -- -- 85
2019-06-08 20:00:00 16.5 22 Nordeste 43 Nordeste 0 -- -- 85
2019-06-08 19:00:00 17.8 16 Nordeste 39 Este 0 -- -- 75
2019-06-08 18:00:00 17.7 18 Nordeste 29 Nordeste 0 -- -- 76
2019-06-08 17:00:00 17.5 17 Nordeste 31 Nordeste 0 -- -- 79
2019-06-08 16:00:00 17.4 19 Nordeste 35 Este 0 -- -- 75
2019-06-08 15:00:00 16.7 17 Nordeste 31 Nordeste 0 -- -- 85
2019-06-08 14:00:00 16.1 21 Nordeste 29 Nordeste 0.4 -- -- 90
2019-06-08 13:00:00 16 18 Nordeste 32 Nordeste 0.4 -- -- 94
2019-06-08 12:00:00 16.6 15 Nordeste 23 Nordeste 0 -- -- 90
2019-06-08 11:00:00 16.1 11 Nordeste 30 Nordeste 0.2 -- -- 92
2019-06-08 10:00:00 15.6 19 Nordeste 31 Nordeste 0.4 -- -- 94
2019-06-08 09:00:00 16.1 17 Nordeste 32 Nordeste 0.4 -- -- 95
2019-06-08 08:00:00 16.1 11 Nordeste 25 Nordeste 0 -- -- 94
2019-06-08 07:00:00 15.9 11 Nordeste 31 Nordeste 0.2 -- -- 95
2019-06-08 06:00:00 16.4 16 Nordeste 33 Nordeste 0.6 -- -- 96
2019-06-08 05:00:00 16.7 16 Nordeste 30 Nordeste 0 -- -- 91
2019-06-08 04:00:00 16.4 9 Noroeste 23 Oeste 0 -- -- 77
2019-06-08 03:00:00 16.4 15 Oeste 22 Oeste 0 -- -- 84
2019-06-08 02:00:00 15.6 10 Oeste 13 Sudoeste 0 -- -- 83
2019-06-08 01:00:00 16 6 Sudoeste 12 Oeste 0 -- -- 81
2019-06-08 00:00:00 16.3 5 Noroeste 10 Norte 0 -- -- 84
2019-06-07 23:00:00 16.4 4 Noroeste 10 Norte 0 -- -- 84
2019-06-07 22:00:00 16.9 4 Norte 12 Este 0 -- -- 82
2019-06-07 21:00:00 17.8 8 Nordeste 22 Nordeste 0 -- -- 81
2019-06-07 20:00:00 19 11 Nordeste 23 Nordeste 0 -- -- 78
2019-06-07 19:00:00 19.9 12 Nordeste 25 Nordeste 0 -- -- 72
2019-06-07 18:00:00 20.9 15 Nordeste 33 Nordeste 0 -- -- 65
2019-06-07 17:00:00 21.1 17 Nordeste 29 Nordeste 0 -- -- 61
2019-06-07 16:00:00 21 16 Este 27 Este 0 -- -- 67
2019-06-07 15:00:00 19.9 13 Este 32 Nordeste 0 -- -- 71
2019-06-07 14:00:00 20 19 Nordeste 33 Nordeste 0 -- -- 68
2019-06-07 13:00:00 20.5 17 Nordeste 32 Este 0 -- -- 66
2019-06-07 12:00:00 20.9 21 Este 39 Nordeste 0 -- -- 60
2019-06-07 11:00:00 19.7 20 Nordeste 37 Nordeste 0 -- -- 64
2019-06-07 10:00:00 19.1 14 Nordeste 21 Nordeste 0 -- -- 62
2019-06-07 09:00:00 17.8 6 Este 10 Nordeste 0 -- -- 64
2019-06-07 08:00:00 15.6 5 Nordeste 13 Noroeste 0 -- -- 69
2019-06-07 07:00:00 14.2 9 Oeste 18 Oeste 0 -- -- 79
2019-06-07 06:00:00 14.1 13 Oeste 19 Oeste 0 -- -- 78
2019-06-07 05:00:00 14.3 6 Oeste 17 Oeste 0 -- -- 72
2019-06-07 04:00:00 14.4 14 Oeste 21 Oeste 0 -- -- 76
2019-06-07 03:00:00 14.6 11 Oeste 18 Oeste 0 -- -- 76
2019-06-07 02:00:00 14.2 9 Oeste 14 Oeste 0 -- -- 75
2019-06-07 01:00:00 15.1 11 Oeste 19 Oeste 0 -- -- 76
2019-06-07 00:00:00 14.9 13 Oeste 17 Oeste 0 -- -- 75
2019-06-06 23:00:00 15 10 Oeste 13 Oeste 0 -- -- 76
2019-06-06 22:00:00 15.7 4 Sudoeste 13 Nordeste 0 -- -- 74
2019-06-06 21:00:00 16.5 9 Este 17 Este 0 -- -- 71
2019-06-06 20:00:00 17.3 8 Sudeste 22 Este 0 -- -- 69
2019-06-06 19:00:00 18.1 14 Nordeste 30 Este 0 -- -- 68
2019-06-06 18:00:00 18.6 18 Nordeste 30 Nordeste 0 -- -- 66
2019-06-06 17:00:00 19.2 19 Nordeste 35 Este 0 -- -- 62
2019-06-06 16:00:00 19.6 22 Este 38 Nordeste 0 -- -- 61
2019-06-06 15:00:00 19.9 21 Este 41 Este 0 -- -- 61
2019-06-06 14:00:00 19.3 25 Nordeste 44 Este 0 -- -- 65
2019-06-06 13:00:00 20.1 23 Nordeste 42 Este 0 -- -- 64
2019-06-06 12:00:00 21.6 22 Nordeste 41 Este 0 -- -- 58
2019-06-06 11:00:00 21.3 21 Nordeste 39 Este 0 -- -- 47
2019-06-06 10:00:00 19.5 21 Nordeste 35 Nordeste 0 -- -- 56
2019-06-06 09:00:00 17.7 10 Nordeste 22 Este 0 -- -- 66
2019-06-06 08:00:00 16.5 3 Sudeste 9 Oeste 0 -- -- 74
2019-06-06 07:00:00 15.7 3 Sudoeste 13 Nordeste 0 -- -- 76
2019-06-06 06:00:00 15.9 5 Este 21 Este 0 -- -- 76
2019-06-06 05:00:00 16.1 12 Nordeste 28 Nordeste 0 -- -- 78
2019-06-06 04:00:00 16.1 14 Este 30 Este 0 -- -- 84
2019-06-06 03:00:00 16.1 14 Nordeste 31 Nordeste 0 -- -- 85
2019-06-06 02:00:00 16.2 16 Nordeste 33 Nordeste 0 -- -- 86
2019-06-06 01:00:00 16.4 19 Nordeste 34 Nordeste 0 -- -- 88
2019-06-06 00:00:00 16.7 16 Este 35 Nordeste 0 -- -- 88
2019-06-05 23:00:00 16.9 19 Nordeste 33 Nordeste 0 -- -- 86
2019-06-05 22:00:00 17 19 Nordeste 35 Nordeste -- -- -- 88
2019-06-05 21:00:00 17.3 19 Nordeste 34 Nordeste 0 -- -- 84
2019-06-05 20:00:00 17.8 19 Nordeste 36 Nordeste 0 -- -- 83
2019-06-05 19:00:00 18.4 23 Nordeste 36 Nordeste 0 -- -- 76
2019-06-05 18:00:00 18.8 24 Nordeste 41 Este 0 -- -- 78
2019-06-05 17:00:00 19 21 Nordeste 34 Nordeste 0 -- -- 78
2019-06-05 16:00:00 19.1 19 Nordeste 33 Nordeste 0 -- -- 81
2019-06-05 15:00:00 19.7 21 Nordeste 37 Este 0 -- -- 76
2019-06-05 14:00:00 20.1 21 Nordeste 38 Nordeste 0 -- -- 74
2019-06-05 13:00:00 20.8 22 Nordeste 41 Nordeste 0 -- -- 68
2019-06-05 12:00:00 20.9 21 Nordeste 41 Nordeste 0 -- -- 68
2019-06-05 11:00:00 21.4 21 Nordeste 38 Nordeste 0 -- -- 66
2019-06-05 10:00:00 20.7 20 Nordeste 33 Este 0 -- -- 75
2019-06-05 09:00:00 19.3 19 Nordeste 35 Nordeste 0 -- -- 79
2019-06-05 08:00:00 17.2 20 Nordeste 30 Nordeste 0 -- -- 88
2019-06-05 07:00:00 16.3 4 Norte 21 Nordeste 0 -- -- 81
2019-06-05 06:00:00 16.5 5 Noroeste 12 Noroeste 0 -- -- 80
2019-06-05 05:00:00 16.6 4 Norte 11 Noroeste 0 -- -- 81
2019-06-05 04:00:00 17 4 Sudoeste 34 Oeste 0 -- -- 82
2019-06-05 03:00:00 17.3 15 Sudoeste 25 Sudoeste 0 -- -- 83
2019-06-05 02:00:00 16.8 7 Sudoeste 16 Oeste 0 -- -- 84
2019-06-05 01:00:00 16.8 6 Oeste 9 Sudoeste 0 -- -- 85
2019-06-05 00:00:00 17.4 4 Sudoeste 6 Sur 0 -- -- 82
2019-06-04 23:00:00 18.1 6 Sudoeste 11 Sudoeste 0 -- -- 78
2019-06-04 22:00:00 18.8 8 Sudoeste 13 Sudoeste 0 -- -- 76
2019-06-04 21:00:00 19.4 8 Sur 12 Sur 0 -- -- 72
2019-06-04 20:00:00 21.1 5 Sudeste 13 Este 0 -- -- 66
2019-06-04 19:00:00 21.8 7 Este 19 Este 0 -- -- 66
2019-06-04 18:00:00 22.2 12 Este 28 Nordeste 0 -- -- 68
2019-06-04 17:00:00 22.7 16 Este 26 Este 0 -- -- 66
2019-06-04 16:00:00 24.5 17 Este 28 Este 0 -- -- 59
2019-06-04 15:00:00 25.2 17 Este 29 Este 0 -- -- 56
2019-06-04 14:00:00 25.3 17 Este 29 Nordeste 0 -- -- 52
2019-06-04 13:00:00 25.6 21 Este 32 Nordeste 0 -- -- 43
2019-06-04 12:00:00 26.5 19 Este 32 Este 0 -- -- 38
2019-06-04 11:00:00 27.1 19 Nordeste 32 Nordeste 0 -- -- 30
2019-06-04 10:00:00 26 16 Nordeste 26 Nordeste 0 -- -- 34
2019-06-04 09:00:00 24.4 11 Nordeste 26 Nordeste 0 -- -- 33
2019-06-04 08:00:00 21.9 10 Nordeste 20 Nordeste 0 -- -- 31
2019-06-04 07:00:00 21.5 13 Nordeste 25 Nordeste 0 -- -- 31
2019-06-04 06:00:00 20.5 9 Norte 16 Nordeste 0 -- -- 33
2019-06-04 05:00:00 20.8 8 Nordeste 17 Norte 0 -- -- 33
2019-06-04 04:00:00 20.5 5 Este 17 Norte 0 -- -- 38
2019-06-04 03:00:00 21.2 9 Nordeste 22 Nordeste 0 -- -- 35
2019-06-04 02:00:00 21.2 10 Nordeste 21 Nordeste 0 -- -- 39
2019-06-04 01:00:00 21.1 13 Nordeste 22 Norte 0 -- -- 38
2019-06-04 00:00:00 22.2 12 Nordeste 26 Nordeste 0 -- -- 35
2019-06-03 23:00:00 22.3 14 Nordeste 29 Nordeste 0 -- -- 36
2019-06-03 22:00:00 23.1 19 Nordeste 30 Nordeste 0 -- -- 34
2019-06-03 21:00:00 23.3 16 Nordeste 30 Nordeste 0 -- -- 37
2019-06-03 20:00:00 24.6 22 Nordeste 33 Nordeste 0 -- -- 35
2019-06-03 19:00:00 25.6 14 Nordeste 33 Nordeste 0 -- -- 38
2019-06-03 18:00:00 26 19 Nordeste 35 Este 0 -- -- 38
2019-06-03 17:00:00 27.9 22 Nordeste 33 Este 0 -- -- 33
2019-06-03 16:00:00 28.7 22 Este 35 Nordeste 0 -- -- 29
2019-06-03 15:00:00 29 22 Nordeste 33 Nordeste 0 -- -- 31
2019-06-03 14:00:00 29.4 19 Este 31 Nordeste 0 -- -- 31
2019-06-03 13:00:00 28.5 19 Nordeste 35 Nordeste 0 -- -- 29
2019-06-03 12:00:00 27.8 20 Nordeste 31 Este 0 -- -- 33
2019-06-03 11:00:00 28.7 15 Este 27 Nordeste 0 -- -- 34
2019-06-03 10:00:00 28.1 14 Nordeste 24 Nordeste 0 -- -- 26
2019-06-03 09:00:00 25.7 10 Nordeste 21 Norte 0 -- -- 25
2019-06-03 08:00:00 22.1 3 Norte 14 Nordeste 0 -- -- 29
2019-06-03 07:00:00 21.2 3 Norte 16 Norte 0 -- -- 30
2019-06-03 06:00:00 22.1 8 Norte 21 Nordeste 0 -- -- 26
2019-06-03 05:00:00 21.8 12 Nordeste 21 Este 0 -- -- 27
2019-06-03 04:00:00 23.9 17 Nordeste 33 Nordeste 0 -- -- 28
2019-06-03 03:00:00 24.3 16 Nordeste 40 Nordeste 0 -- -- 24
2019-06-03 02:00:00 27.3 23 Nordeste 48 Nordeste 0 -- -- 15
2019-06-03 01:00:00 25.3 24 Nordeste 40 Nordeste 0 -- -- 27
2019-06-03 00:00:00 23.5 17 Nordeste 36 Nordeste 0 -- -- 34
2019-06-02 23:00:00 23.5 15 Nordeste 26 Nordeste 0 -- -- 38
2019-06-02 22:00:00 24.6 14 Nordeste 23 Nordeste 0 -- -- 36
2019-06-02 21:00:00 24.1 10 Nordeste 23 Nordeste 0 -- -- 36
2019-06-02 20:00:00 25 11 Nordeste 19 Nordeste 0 -- -- 40
2019-06-02 19:00:00 27.4 6 Este 21 Nordeste 0 -- -- 41
2019-06-02 18:00:00 28.4 6 Nordeste 15 Este 0 -- -- 43
2019-06-02 17:00:00 29.5 7 Este 14 Este 0 -- -- 42
2019-06-02 16:00:00 27.9 9 Este 19 Este 0 -- -- 53
2019-06-02 15:00:00 26.6 9 Nordeste 15 Nordeste 0 -- -- 59
2019-06-02 14:00:00 27 9 Este 19 Sudeste 0 -- -- 58
2019-06-02 13:00:00 27.1 8 Sudeste 18 Este 0 -- -- 57
2019-06-02 12:00:00 28.3 10 Este 19 Este 0 -- -- 51
2019-06-02 11:00:00 28.9 9 Este 15 Este 0 -- -- 42
2019-06-02 10:00:00 27.2 6 Nordeste 17 Nordeste 0 -- -- 42
2019-06-02 09:00:00 26.1 8 Nordeste 19 Nordeste 0 -- -- 41
2019-06-02 08:00:00 23.8 9 Nordeste 23 Norte 0 -- -- 38
2019-06-02 07:00:00 20.4 12 Norte 18 Este 0 -- -- 53
2019-06-02 06:00:00 18.3 8 Norte 13 Norte 0 -- -- 63
2019-06-02 05:00:00 17.6 6 Norte 10 Norte 0 -- -- 60
2019-06-02 04:00:00 16.5 5 Nordeste 11 Nordeste 0 -- -- 90
2019-06-02 03:00:00 18 5 Nordeste 14 Nordeste 0 -- -- 77
2019-06-02 02:00:00 18.5 8 Norte 13 Noroeste 0 -- -- 59
2019-06-02 01:00:00 16.7 6 Norte 11 Nordeste 0 -- -- 88
2019-06-02 00:00:00 17.2 7 Nordeste 12 Nordeste 0 -- -- 89
2019-06-01 23:00:00 17.8 6 Nordeste 10 Nordeste 0 -- -- 87
2019-06-01 22:00:00 18.1 2 Nordeste 10 Sur 0 -- -- 83
2019-06-01 21:00:00 19 5 Sudoeste 18 Sudoeste 0 -- -- 81
2019-06-01 20:00:00 20.4 10 Sur 16 Sur 0 -- -- 76
2019-06-01 19:00:00 22.2 7 Sudeste 17 Sudeste 0 -- -- 69
2019-06-01 18:00:00 22.9 9 Este 19 Sudeste 0 -- -- 67
2019-06-01 17:00:00 23.5 8 Este 20 Sudeste 0 -- -- 65
2019-06-01 16:00:00 23.8 10 Sudeste 19 Sudeste 0 -- -- 64
2019-06-01 15:00:00 24.1 10 Este 20 Este 0 -- -- 64
2019-06-01 14:00:00 24.6 11 Sudeste 19 Sudeste 0 -- -- 62
2019-06-01 13:00:00 24.9 9 Sudeste 28 Este 0 -- -- 61
2019-06-01 12:00:00 23.6 9 Sur 29 Sudoeste 0 -- -- 64
2019-06-01 11:00:00 21.5 18 Sudoeste 27 Sur 0 -- -- 70
2019-06-01 10:00:00 20.3 14 Sur 21 Sudoeste 0 -- -- 76
2019-06-01 09:00:00 19.6 5 Sudeste 8 Sudeste 0 -- -- 77
2019-06-01 08:00:00 16.5 2 Norte 13 Norte 0 -- -- 88
2019-06-01 07:00:00 15.8 9 Norte 11 Norte 0 -- -- 88
2019-06-01 06:00:00 16.2 2 Norte 10 Noroeste 0 -- -- 81
2019-06-01 05:00:00 15.3 8 Norte 15 Sudoeste 0 -- -- 89
2019-06-01 04:00:00 16.6 10 Sudoeste 15 Sudoeste 0 -- -- 91
2019-06-01 03:00:00 16.3 2 Sudoeste 8 Sur 0 -- -- 93
2019-06-01 02:00:00 16.2 3 Noroeste 6 Noroeste 0 -- -- 90
2019-06-01 01:00:00 16.6 4 Norte 8 Noroeste 0 -- -- 89
2019-06-01 00:00:00 16.6 4 Norte 6 Noroeste 0 -- -- 86
2019-05-31 23:00:00 17 2 Norte 8 Nordeste 0 -- -- 86
2019-05-31 22:00:00 17.9 4 Nordeste 7 Nordeste 0 -- -- 82
2019-05-31 21:00:00 19.1 5 Este 9 Este 0 -- -- 77
2019-05-31 20:00:00 21.9 3 Sudeste 14 Nordeste 0 -- -- 67
2019-05-31 19:00:00 23.4 10 Este 15 Este 0 -- -- 64
2019-05-31 18:00:00 24.6 8 Este 19 Este 0 -- -- 60
2019-05-31 17:00:00 25.2 7 Sudeste 22 Sur 0 -- -- 58
2019-05-31 16:00:00 23.7 14 Sur 23 Sur 0 -- -- 62
2019-05-31 15:00:00 24.6 10 Sudeste 21 Sudeste 0 -- -- 59
2019-05-31 14:00:00 25.5 10 Este 19 Sudeste 0 -- -- 57
2019-05-31 13:00:00 25.4 13 Este 19 Este 0 -- -- 56
2019-05-31 12:00:00 24 10 Sur 18 Sudeste 0 -- -- 60
2019-05-31 11:00:00 23 9 Sudeste 15 Sudeste 0 -- -- 63
2019-05-31 10:00:00 21.7 5 Sudeste 13 Sudeste 0 -- -- 63
2019-05-31 09:00:00 20 3 Nordeste 8 Nordeste 0 -- -- 68
2019-05-31 08:00:00 17.1 5 Norte 8 Noroeste 0 -- -- 70
2019-05-31 07:00:00 14.1 6 Noroeste 11 Sudoeste 0 -- -- 69
2019-05-31 06:00:00 14.8 9 Oeste 13 Oeste 0 -- -- 93
2019-05-31 05:00:00 14.9 3 Noroeste 8 Noroeste 0 -- -- 93
2019-05-31 04:00:00 14.5 4 Noroeste 7 Noroeste 0 -- -- 88
2019-05-31 03:00:00 15.1 2 Noroeste 6 Noroeste 0 -- -- 90
2019-05-31 02:00:00 15.2 4 Noroeste 6 Noroeste 0 -- -- 85
2019-05-31 01:00:00 15.4 0 Calma 5 Norte 0 -- -- 87
2019-05-31 00:00:00 15.5 2 Norte 5 Nordeste 0 -- -- 82
2019-05-30 23:00:00 16 0 Calma 7 Norte 0 -- -- 86
2019-05-30 22:00:00 16.8 3 Noroeste 14 Sudoeste 0 -- -- 85
2019-05-30 21:00:00 17.6 10 Sudoeste 19 Sudoeste 0 -- -- 84
2019-05-30 20:00:00 19.5 12 Sur 22 Sur 0 -- -- 75
2019-05-30 19:00:00 21.7 13 Sur 22 Sudoeste 0 -- -- 66
2019-05-30 18:00:00 22.5 14 Sur 28 Sur 0 -- -- 63
2019-05-30 17:00:00 23.3 13 Sur 24 Sur 0 -- -- 61
2019-05-30 16:00:00 23.4 15 Sur 29 Sur 0 -- -- 61
2019-05-30 15:00:00 23 15 Sur 28 Sur 0 -- -- 62
2019-05-30 14:00:00 23.1 16 Sur 27 Sur 0 -- -- 62
2019-05-30 13:00:00 23.6 14 Sur 24 Sudeste 0 -- -- 61
2019-05-30 12:00:00 24.1 11 Sudeste 20 Este 0 -- -- 59
2019-05-30 11:00:00 22.6 8 Este 14 Este 0 -- -- 63
2019-05-30 10:00:00 20.5 6 Sudeste 12 Sudeste 0 -- -- 69
2019-05-30 09:00:00 18.3 3 Este 6 Sur 0 -- -- 77
2019-05-30 08:00:00 15.7 0 Calma 9 Noroeste 0 -- -- 87
2019-05-30 07:00:00 14.2 5 Noroeste 10 Oeste 0 -- -- 89
2019-05-30 06:00:00 13.8 3 Oeste 22 Sudoeste 0 -- -- 84
2019-05-30 05:00:00 14.4 13 Oeste 22 Sudoeste 0 -- -- 91
2019-05-30 04:00:00 14.3 4 Oeste 12 Noroeste 0 -- -- 87
2019-05-30 03:00:00 15.1 5 Oeste 13 Oeste 0 -- -- 93
2019-05-30 02:00:00 15.2 4 Sudoeste 10 Noroeste 0 -- -- 88
2019-05-30 01:00:00 15.5 9 Noroeste 11 Noroeste 0 -- -- 88
2019-05-30 00:00:00 15.8 3 Norte 8 Norte 0 -- -- 88
2019-05-29 23:00:00 16.3 3 Nordeste 8 Nordeste 0 -- -- 86
2019-05-29 22:00:00 16.8 2 Oeste 16 Sudoeste 0 -- -- 84
2019-05-29 21:00:00 17.4 14 Sudoeste 22 Sudoeste 0 -- -- 83
2019-05-29 20:00:00 19.5 11 Sur 19 Sur 0 -- -- 73
2019-05-29 19:00:00 20.9 11 Sur 19 Sudeste 0 -- -- 67
2019-05-29 18:00:00 22.6 12 Sudeste 22 Sudeste 0 -- -- 60
2019-05-29 17:00:00 23.6 9 Sudeste 18 Sur 0 -- -- 58
2019-05-29 16:00:00 23.6 12 Sudeste 22 Nordeste 0 -- -- 57
2019-05-29 15:00:00 24.1 9 Este 21 Sudeste 0 -- -- 57
2019-05-29 14:00:00 23.8 10 Este 19 Sudeste 0 -- -- 58
2019-05-29 13:00:00 23.3 10 Sudeste 24 Sudeste 0 -- -- 60
2019-05-29 12:00:00 22.2 10 Sudeste 22 Sur 0 -- -- 65
2019-05-29 11:00:00 21.1 12 Sur 26 Sudoeste 0 -- -- 68
2019-05-29 10:00:00 18.9 14 Sur 25 Sudoeste 0 -- -- 75
2019-05-29 09:00:00 16.6 19 Sudoeste 25 Sudoeste 0 -- -- 86
2019-05-29 08:00:00 15.6 17 Sudoeste 24 Sudoeste 0 -- -- 88
2019-05-29 07:00:00 13.1 0 Calma 15 Sudoeste 0 -- -- 70
2019-05-29 06:00:00 13.5 4 Sudoeste 15 Oeste 0 -- -- 79
2019-05-29 05:00:00 14.3 12 Oeste 17 Sudoeste 0 -- -- 92
2019-05-29 04:00:00 14.9 10 Oeste 15 Oeste 0 -- -- 91
2019-05-29 03:00:00 14.9 3 Noroeste 6 Noroeste 0 -- -- 91
2019-05-29 02:00:00 15 3 Sudoeste 5 Noroeste 0 -- -- 89
2019-05-29 01:00:00 15.4 4 Noroeste 12 Sudoeste 0 -- -- 87
2019-05-29 00:00:00 16 0 Calma 9 Este 0 -- -- 85
2019-05-28 23:00:00 16.7 3 Este 12 Este 0 -- -- 85
2019-05-28 22:00:00 17.4 7 Este 18 Nordeste 0 -- -- 83
2019-05-28 21:00:00 17.6 9 Nordeste 21 Este 0 -- -- 83
2019-05-28 20:00:00 18.9 13 Este 21 Este 0 -- -- 79
2019-05-28 19:00:00 19.9 15 Nordeste 25 Este 0 -- -- 74
2019-05-28 18:00:00 21.4 15 Nordeste 26 Este 0 -- -- 68
2019-05-28 17:00:00 22.4 15 Nordeste 26 Este 0 -- -- 64
2019-05-28 16:00:00 22.9 14 Nordeste 27 Este 0 -- -- 61
2019-05-28 15:00:00 22.7 17 Este 30 Este 0 -- -- 63
2019-05-28 14:00:00 22.6 17 Nordeste 32 Este 0 -- -- 65
2019-05-28 13:00:00 22.3 19 Este 40 Este 0 -- -- 65
2019-05-28 12:00:00 21.6 20 Nordeste 34 Nordeste 0 -- -- 68
2019-05-28 11:00:00 20.3 17 Nordeste 33 Nordeste 0 -- -- 75
2019-05-28 10:00:00 18.1 16 Nordeste 28 Este 0 -- -- 81
2019-05-28 09:00:00 17.1 14 Nordeste 25 Nordeste 0 -- -- 89
2019-05-28 08:00:00 16.2 9 Nordeste 23 Nordeste 0 -- -- 92
2019-05-28 07:00:00 15.5 5 Norte 15 Nordeste 0 -- -- 91
2019-05-28 06:00:00 15.9 10 Nordeste 17 Nordeste 0 -- -- 92
2019-05-28 05:00:00 15.8 10 Nordeste 14 Nordeste 0 -- -- 92
2019-05-28 04:00:00 16 8 Nordeste 15 Norte 0 -- -- 92
2019-05-28 03:00:00 15.6 8 Nordeste 13 Nordeste 0 -- -- 93
2019-05-28 02:00:00 15.6 10 Nordeste 15 Nordeste 0 -- -- 92
2019-05-28 01:00:00 15.8 7 Nordeste 14 Norte 0 -- -- 90
2019-05-28 00:00:00 16.1 4 Norte 6 Norte 0 -- -- 88
2019-05-27 23:00:00 16.6 3 Este 7 Este 0 -- -- 85
2019-05-27 22:00:00 17.6 4 Sudeste 8 Sur 0 -- -- 83
2019-05-27 21:00:00 18.8 4 Sudeste 14 Nordeste 0 -- -- 78
2019-05-27 20:00:00 20.3 9 Nordeste 21 Nordeste 0 -- -- 71
2019-05-27 19:00:00 23 11 Nordeste 33 Nordeste 0 -- -- 57
2019-05-27 18:00:00 24.5 20 Nordeste 33 Este 0 -- -- 49
2019-05-27 17:00:00 25.5 21 Nordeste 36 Este 0 -- -- 43
2019-05-27 16:00:00 26.5 20 Nordeste 38 Nordeste 0 -- -- 35
2019-05-27 15:00:00 26.5 22 Nordeste 39 Este 0 -- -- 31
2019-05-27 14:00:00 26.6 22 Nordeste 38 Este 0 -- -- 30
2019-05-27 13:00:00 25.9 22 Nordeste 36 Nordeste 0 -- -- 34
2019-05-27 12:00:00 25.2 18 Este 32 Este 0 -- -- 44
2019-05-27 11:00:00 23.5 17 Nordeste 25 Nordeste 0 -- -- 52
2019-05-27 10:00:00 21.7 12 Este 20 Este 0 -- -- 66
2019-05-27 09:00:00 20 9 Nordeste 16 Este 0 -- -- 73
2019-05-27 08:00:00 18 7 Norte 14 Nordeste 0 -- -- 60
2019-05-27 07:00:00 16.6 9 Nordeste 16 Nordeste 0 -- -- 64
2019-05-27 06:00:00 15.8 3 Nordeste 15 Nordeste 0 -- -- 80
2019-05-27 05:00:00 15.4 2 Sudeste 11 Nordeste 0 -- -- 84
2019-05-27 04:00:00 15.4 5 Noroeste 9 Norte 0 -- -- 80
2019-05-27 03:00:00 15.7 5 Norte 8 Norte 0 -- -- 78
2019-05-27 02:00:00 16.4 5 Oeste 10 Este 0 -- -- 78
2019-05-27 01:00:00 17.2 4 Norte 12 Norte 0 -- -- 63
2019-05-27 00:00:00 17.2 4 Norte 11 Norte 0 -- -- 66
2019-05-26 23:00:00 18 6 Norte 12 Nordeste 0 -- -- 63
2019-05-26 22:00:00 18.6 5 Nordeste 13 Nordeste 0 -- -- 63
2019-05-26 21:00:00 18.8 8 Norte 15 Este 0 -- -- 70
2019-05-26 20:00:00 20.3 8 Este 14 Nordeste 0 -- -- 69
2019-05-26 19:00:00 21.6 9 Este 19 Nordeste 0 -- -- 64
2019-05-26 18:00:00 23.3 10 Este 21 Este 0 -- -- 60
2019-05-26 17:00:00 23.1 13 Este 22 Este 0 -- -- 59
2019-05-26 16:00:00 23.9 13 Este 26 Este 0 -- -- 57
2019-05-26 15:00:00 24 18 Nordeste 30 Este 0 -- -- 57
2019-05-26 14:00:00 23 19 Nordeste 33 Nordeste 0 -- -- 60
2019-05-26 13:00:00 22.5 19 Nordeste 31 Nordeste 0 -- -- 62
2019-05-26 12:00:00 21.9 21 Nordeste 31 Este 0 -- -- 63
2019-05-26 11:00:00 22.1 15 Nordeste 28 Nordeste 0 -- -- 60
2019-05-26 10:00:00 20.8 16 Nordeste 26 Este 0 -- -- 65
2019-05-26 09:00:00 19.2 3 Este 13 Nordeste 0 -- -- 65
2019-05-26 08:00:00 15.8 5 Noroeste 10 Norte 0 -- -- 77
2019-05-26 07:00:00 14.3 3 Norte 18 Nordeste 0 -- -- 87
2019-05-26 06:00:00 14.3 7 Norte 12 Norte 0 -- -- 84
2019-05-26 05:00:00 14.7 5 Norte 17 Norte 0 -- -- 87
2019-05-26 04:00:00 14.8 9 Oeste 14 Oeste 0 -- -- 87
2019-05-26 03:00:00 15 9 Nordeste 15 Nordeste 0 -- -- 83
2019-05-26 02:00:00 15.6 4 Oeste 28 Oeste 0 -- -- 80
2019-05-26 01:00:00 16.5 20 Sudoeste 28 Sudoeste 0 -- -- 84
2019-05-26 00:00:00 16.1 8 Sudoeste 18 Sudoeste 0 -- -- 80